createdAt,value
2023-04-08T00:00:29.051Z,4.97
2023-04-08T00:02:55.863Z,4.50
2023-04-08T00:05:22.711Z,5.13
2023-04-08T00:07:49.501Z,6.10
2023-04-08T00:10:16.423Z,4.80
2023-04-08T00:12:43.374Z,4.50
2023-04-08T00:15:10.335Z,4.97
2023-04-08T00:17:37.126Z,3.90
2023-04-08T00:20:04.986Z,4.83
2023-04-08T00:22:31.876Z,3.80
2023-04-08T00:24:59.002Z,7.90
2023-04-08T00:27:25.969Z,9.73
2023-04-08T00:29:52.795Z,8.60
2023-04-08T00:32:19.571Z,7.50
2023-04-08T00:34:46.568Z,7.67
2023-04-08T00:37:13.331Z,9.00
2023-04-08T00:39:40.031Z,6.43
2023-04-08T00:42:06.792Z,7.80
2023-04-08T00:44:33.512Z,6.90
2023-04-08T00:47:00.552Z,6.53
2023-04-08T00:49:27.416Z,7.57
2023-04-08T00:51:55.369Z,5.67
2023-04-08T00:54:22.178Z,6.03
2023-04-08T00:56:48.893Z,8.67
2023-04-08T00:59:15.759Z,8.63
2023-04-08T01:01:53.810Z,6.17
2023-04-08T01:04:33.914Z,5.43
2023-04-08T01:07:18.047Z,7.20
2023-04-08T01:09:52.367Z,6.10
2023-04-08T01:12:27.429Z,8.17
2023-04-08T01:14:59.721Z,7.00
2023-04-08T01:17:26.548Z,8.20
2023-04-08T01:19:55.029Z,8.60
2023-04-08T01:22:54.921Z,9.23
2023-04-08T01:25:24.959Z,7.37
2023-04-08T01:27:53.236Z,7.87
2023-04-08T01:30:21.401Z,7.73
2023-04-08T01:32:48.385Z,6.80
2023-04-08T01:35:16.653Z,6.23
2023-04-08T01:37:43.585Z,6.30
2023-04-08T01:40:10.991Z,6.77
2023-04-08T01:42:38.464Z,6.63
2023-04-08T01:45:06.338Z,6.07
2023-04-08T01:47:34.545Z,6.80
2023-04-08T01:50:01.694Z,4.97
2023-04-08T01:52:29.280Z,5.83
2023-04-08T01:54:56.497Z,6.57
2023-04-08T01:57:24.957Z,7.23
2023-04-08T01:59:53.297Z,7.17
2023-04-08T02:02:24.958Z,5.60
2023-04-08T02:04:52.099Z,6.10
2023-04-08T02:07:18.955Z,4.83
2023-04-08T02:09:45.797Z,4.30
2023-04-08T02:12:12.676Z,4.93
2023-04-08T02:14:39.477Z,4.17
2023-04-08T02:17:11.715Z,3.90
2023-04-08T02:19:54.534Z,3.60
2023-04-08T02:22:39.901Z,4.20
2023-04-08T02:25:09.654Z,4.23
2023-04-08T02:27:36.857Z,5.47
2023-04-08T02:30:07.506Z,5.70
2023-04-08T02:32:35.097Z,5.60
2023-04-08T02:35:03.983Z,5.00
2023-04-08T02:37:31.744Z,5.80
2023-04-08T02:39:58.935Z,5.70
2023-04-08T02:42:25.931Z,4.07
2023-04-08T02:44:52.750Z,4.47
2023-04-08T02:47:19.578Z,4.80
2023-04-08T02:49:46.515Z,4.00
2023-04-08T02:52:13.275Z,4.13
2023-04-08T02:54:40.008Z,5.10
2023-04-08T02:57:06.711Z,7.10
2023-04-08T02:59:33.538Z,4.83
2023-04-08T03:02:00.706Z,4.70
2023-04-08T03:04:27.703Z,4.37
2023-04-08T03:06:54.414Z,4.87
2023-04-08T03:09:21.587Z,4.70
2023-04-08T03:11:53.328Z,5.03
2023-04-08T03:14:20.975Z,4.50
2023-04-08T03:16:47.832Z,5.17
2023-04-08T03:19:14.600Z,6.43
2023-04-08T03:21:41.363Z,5.77
2023-04-08T03:24:08.210Z,6.10
2023-04-08T03:26:34.966Z,6.20
2023-04-08T03:29:01.710Z,8.47
2023-04-08T03:31:28.797Z,7.13
2023-04-08T03:33:55.556Z,8.60
2023-04-08T03:36:22.282Z,8.80
2023-04-08T03:38:49.221Z,7.97
2023-04-08T03:41:16.305Z,8.00
2023-04-08T03:43:43.107Z,9.90
2023-04-08T03:46:09.828Z,10.20
2023-04-08T03:48:36.582Z,12.07
2023-04-08T03:51:03.413Z,11.37
2023-04-08T03:53:30.911Z,9.87
2023-04-08T03:55:57.909Z,10.00
2023-04-08T03:58:24.682Z,9.53
2023-04-08T04:00:51.728Z,7.77
2023-04-08T04:03:18.692Z,6.93
2023-04-08T04:05:45.572Z,7.67
2023-04-08T04:08:12.443Z,9.03
2023-04-08T04:10:39.168Z,7.33
2023-04-08T04:13:06.039Z,7.27
2023-04-08T04:15:32.894Z,8.53
2023-04-08T04:17:59.858Z,9.90
2023-04-08T04:20:26.654Z,11.80
2023-04-08T04:22:53.407Z,10.80
2023-04-08T04:25:20.222Z,10.47
2023-04-08T04:27:46.874Z,10.00
2023-04-08T04:30:15.801Z,9.83
2023-04-08T04:32:43.161Z,10.87
2023-04-08T04:35:11.079Z,10.13
2023-04-08T04:37:37.708Z,9.20
2023-04-08T04:40:05.449Z,9.47
2023-04-08T04:42:33.042Z,9.70
2023-04-08T04:44:59.853Z,9.50
2023-04-08T04:47:26.461Z,10.60
2023-04-08T04:49:53.138Z,9.47
2023-04-08T04:52:19.737Z,8.83
2023-04-08T04:54:46.409Z,8.13
2023-04-08T04:57:13.001Z,7.10
2023-04-08T04:59:39.565Z,7.90
2023-04-08T05:02:06.508Z,6.97
2023-04-08T05:04:33.273Z,7.90
2023-04-08T05:07:00.534Z,6.90
2023-04-08T05:09:27.130Z,7.13
2023-04-08T05:11:53.939Z,7.10
2023-04-08T05:14:20.795Z,7.53
2023-04-08T05:16:47.411Z,7.67
2023-04-08T05:19:14.023Z,7.60
2023-04-08T05:21:40.699Z,8.07
2023-04-08T05:24:07.240Z,9.13
2023-04-08T05:26:33.936Z,7.73
2023-04-08T05:29:00.556Z,7.83
2023-04-08T05:31:27.604Z,7.30
2023-04-08T05:33:54.330Z,6.33
2023-04-08T05:36:21.249Z,7.60
2023-04-08T05:38:47.870Z,7.17
2023-04-08T05:41:14.547Z,8.73
2023-04-08T05:43:41.386Z,7.27
2023-04-08T05:46:11.346Z,6.67
2023-04-08T05:48:37.923Z,7.53
2023-04-08T05:51:05.278Z,9.10
2023-04-08T05:53:32.302Z,10.50
2023-04-08T05:55:58.940Z,10.00
2023-04-08T05:58:25.934Z,10.37
2023-04-08T06:00:52.655Z,11.30
2023-04-08T06:03:20.676Z,9.13
2023-04-08T06:05:47.547Z,10.70
2023-04-08T06:08:14.285Z,9.83
2023-04-08T06:10:41.014Z,9.13
2023-04-08T06:13:07.892Z,11.83
2023-04-08T06:15:34.580Z,10.03
2023-04-08T06:18:01.549Z,13.57
2023-04-08T06:20:28.724Z,55.33
2023-04-08T06:22:56.377Z,18.87
2023-04-08T06:25:23.476Z,20.73
2023-04-08T06:27:50.467Z,28.00
2023-04-08T06:30:17.276Z,24.30
2023-04-08T06:32:43.983Z,12.93
2023-04-08T06:35:10.642Z,11.90
2023-04-08T06:37:38.789Z,9.93
2023-04-08T06:40:06.561Z,9.87
2023-04-08T06:42:33.274Z,10.50
2023-04-08T06:44:59.948Z,10.60
2023-04-08T06:47:26.813Z,8.77
2023-04-08T06:49:54.429Z,11.07
2023-04-08T06:52:21.316Z,9.60
2023-04-08T06:54:47.995Z,9.07
2023-04-08T06:57:14.658Z,10.13
2023-04-08T06:59:41.273Z,9.40
2023-04-08T07:02:07.907Z,9.30
2023-04-08T07:04:34.868Z,9.70
2023-04-08T07:07:01.834Z,11.87
2023-04-08T07:09:28.611Z,9.97
2023-04-08T07:11:55.921Z,8.97
2023-04-08T07:14:22.599Z,10.50
2023-04-08T07:16:49.689Z,10.53
2023-04-08T07:19:16.476Z,9.60
2023-04-08T07:21:43.344Z,9.30
2023-04-08T07:24:10.018Z,8.90
2023-04-08T07:26:36.904Z,10.00
2023-04-08T07:29:03.645Z,10.30
2023-04-08T07:31:30.617Z,8.63
2023-04-08T07:33:57.373Z,8.87
2023-04-08T07:36:24.081Z,9.10
2023-04-08T07:38:50.878Z,8.13
2023-04-08T07:41:17.684Z,9.53
2023-04-08T07:43:44.503Z,7.97
2023-04-08T07:46:11.358Z,9.20
2023-04-08T07:48:38.756Z,8.83
2023-04-08T07:51:09.292Z,8.50
2023-04-08T07:53:38.863Z,7.83
2023-04-08T07:56:11.656Z,7.53
2023-04-08T07:58:38.673Z,8.30
2023-04-08T08:01:05.556Z,7.20
2023-04-08T08:03:34.044Z,8.37
2023-04-08T08:06:00.894Z,6.90
2023-04-08T08:08:27.569Z,8.20
2023-04-08T08:10:54.298Z,6.63
2023-04-08T08:13:22.241Z,6.30
2023-04-08T08:15:53.604Z,5.57
2023-04-08T08:18:20.785Z,6.10
2023-04-08T08:20:47.492Z,5.80
2023-04-08T08:23:14.181Z,6.60
2023-04-08T08:25:40.920Z,5.20
2023-04-08T08:28:07.701Z,6.80
2023-04-08T08:30:34.678Z,7.63
2023-04-08T08:33:01.441Z,7.20
2023-04-08T08:35:28.442Z,6.43
2023-04-08T08:37:55.205Z,7.07
2023-04-08T08:40:22.088Z,6.63
2023-04-08T08:42:52.753Z,7.53
2023-04-08T08:45:20.620Z,6.63
2023-04-08T08:47:50.353Z,7.97
2023-04-08T08:50:18.639Z,7.83
2023-04-08T08:52:50.460Z,7.60
2023-04-08T08:55:36.297Z,7.17
2023-04-08T08:58:08.227Z,7.40
2023-04-08T09:00:39.317Z,7.70
2023-04-08T09:03:19.639Z,5.60
2023-04-08T09:05:51.239Z,7.47
2023-04-08T09:08:34.730Z,7.67
2023-04-08T09:11:21.912Z,11.00
2023-04-08T09:13:49.331Z,8.00
2023-04-08T09:16:20.845Z,7.10
2023-04-08T09:18:49.400Z,6.30
2023-04-08T09:21:17.874Z,6.40
2023-04-08T09:23:45.728Z,7.20
2023-04-08T09:26:22.085Z,7.13
2023-04-08T09:29:14.320Z,6.23
2023-04-08T09:31:47.398Z,7.07
2023-04-08T09:34:16.724Z,8.20
2023-04-08T09:36:47.403Z,6.30
2023-04-08T09:39:14.063Z,7.07
2023-04-08T09:41:41.450Z,6.80
2023-04-08T09:44:09.778Z,6.80
2023-04-08T09:46:51.715Z,7.73
2023-04-08T09:49:38.873Z,6.90
2023-04-08T09:52:08.506Z,7.00
2023-04-08T09:55:00.717Z,7.90
2023-04-08T09:57:58.529Z,6.57
2023-04-08T10:00:30.529Z,7.80
2023-04-08T10:03:07.537Z,7.70
2023-04-08T10:05:37.980Z,7.67
2023-04-08T10:08:06.398Z,7.97
2023-04-08T10:10:35.119Z,8.20
2023-04-08T10:13:02.121Z,6.30
2023-04-08T10:15:32.788Z,6.50
2023-04-08T10:18:08.308Z,6.43
2023-04-08T10:20:35.054Z,7.33
2023-04-08T10:23:05.556Z,7.13
2023-04-08T10:25:34.441Z,6.07
2023-04-08T10:28:22.958Z,9.47
2023-04-08T10:30:56.834Z,7.63
2023-04-08T10:33:29.706Z,9.70
2023-04-08T10:36:12.478Z,8.80
2023-04-08T10:38:39.800Z,9.80
2023-04-08T10:41:06.573Z,9.40
2023-04-08T10:43:34.232Z,6.97
2023-04-08T10:46:01.588Z,7.70
2023-04-08T10:48:31.480Z,8.23
2023-04-08T10:51:05.228Z,7.73
2023-04-08T10:53:36.405Z,7.90
2023-04-08T10:56:16.902Z,8.30
2023-04-08T10:58:55.333Z,8.00
2023-04-08T11:01:22.842Z,6.80
2023-04-08T11:03:50.424Z,21.87
2023-04-08T11:06:17.779Z,9.07
2023-04-08T11:08:47.481Z,6.07
2023-04-08T11:11:14.912Z,13.83
2023-04-08T11:13:51.975Z,13.17
2023-04-08T11:16:21.929Z,8.33
2023-04-08T11:18:49.779Z,36.70
2023-04-08T11:21:17.301Z,38.80
2023-04-08T11:23:44.033Z,8.27
2023-04-08T11:26:11.392Z,8.33
2023-04-08T11:28:38.686Z,17.50
2023-04-08T11:31:06.061Z,7.50
2023-04-08T11:33:33.126Z,8.37
2023-04-08T11:38:28.607Z,9.90
2023-04-08T11:40:56.520Z,9.43
2023-04-08T11:43:23.642Z,8.00
2023-04-08T11:45:50.891Z,6.00
2023-04-08T11:48:18.162Z,6.73
2023-04-08T11:50:45.262Z,7.30
2023-04-08T11:53:23.576Z,8.37
2023-04-08T11:55:50.388Z,8.60
2023-04-08T11:58:20.134Z,7.57
2023-04-08T12:00:46.934Z,11.30
2023-04-08T12:03:13.896Z,11.03
2023-04-08T12:05:40.902Z,9.80
2023-04-08T12:08:07.688Z,14.40
2023-04-08T12:10:34.499Z,8.50
2023-04-08T12:13:01.170Z,29.60
2023-04-08T12:15:28.077Z,13.17
2023-04-08T12:17:55.126Z,9.20
2023-04-08T12:20:21.907Z,6.33
2023-04-08T12:22:48.632Z,7.10
2023-04-08T12:25:15.440Z,7.03
2023-04-08T12:27:42.215Z,14.03
2023-04-08T12:30:09.453Z,7.67
2023-04-08T12:32:36.226Z,7.53
2023-04-08T12:35:02.996Z,7.20
2023-04-08T12:37:29.774Z,6.03
2023-04-08T12:39:56.432Z,7.00
2023-04-08T12:42:23.122Z,7.10
2023-04-08T12:44:49.797Z,7.10
2023-04-08T12:47:16.634Z,7.37
2023-04-08T12:49:49.346Z,7.87
2023-04-08T12:52:17.518Z,20.80
2023-04-08T12:54:44.640Z,9.60
2023-04-08T12:57:11.526Z,7.30
2023-04-08T12:59:39.932Z,8.27
2023-04-08T13:02:08.104Z,7.90
2023-04-08T13:04:35.370Z,8.87
2023-04-08T13:07:02.475Z,7.00
2023-04-08T13:09:30.631Z,6.83
2023-04-08T13:11:58.509Z,8.07
2023-04-08T13:14:25.674Z,8.57
2023-04-08T13:16:52.543Z,7.97
2023-04-08T13:19:19.355Z,7.40
2023-04-08T13:21:46.422Z,7.17
2023-04-08T13:24:13.333Z,8.97
2023-04-08T13:26:40.083Z,9.77
2023-04-08T13:29:08.142Z,8.03
2023-04-08T13:31:34.879Z,7.53
2023-04-08T13:34:01.677Z,8.90
2023-04-08T13:36:31.642Z,21.10
2023-04-08T13:38:58.583Z,10.70
2023-04-08T13:41:25.491Z,9.80
2023-04-08T13:43:52.386Z,10.00
2023-04-08T13:46:19.131Z,9.23
2023-04-08T13:48:46.585Z,7.93
2023-04-08T13:51:13.274Z,8.23
2023-04-08T13:53:39.924Z,9.27
2023-04-08T13:56:06.841Z,8.50
2023-04-08T13:58:33.544Z,7.83
2023-04-08T14:01:00.314Z,8.67
2023-04-08T14:03:28.191Z,9.17
2023-04-08T14:05:55.130Z,7.10
2023-04-08T14:08:25.541Z,5.70
2023-04-08T14:10:53.454Z,7.73
2023-04-08T14:13:20.466Z,12.80
2023-04-08T14:15:48.159Z,15.73
2023-04-08T14:18:17.518Z,11.30
2023-04-08T14:20:44.398Z,10.90
2023-04-08T14:23:13.567Z,12.93
2023-04-08T14:25:40.975Z,14.03
2023-04-08T14:28:08.229Z,16.23
2023-04-08T14:30:36.260Z,12.93
2023-04-08T14:33:03.300Z,10.50
2023-04-08T14:35:30.202Z,11.93
2023-04-08T14:37:57.051Z,13.20
2023-04-08T14:40:23.829Z,12.10
2023-04-08T14:42:50.526Z,15.00
2023-04-08T14:45:17.532Z,13.10
2023-04-08T14:47:44.346Z,12.33
2023-04-08T14:50:11.680Z,11.90
2023-04-08T14:52:38.396Z,14.07
2023-04-08T14:55:05.348Z,12.23
2023-04-08T14:57:32.128Z,28.00
2023-04-08T14:59:59.560Z,21.07
2023-04-08T15:02:26.389Z,11.10
2023-04-08T15:04:53.114Z,33.60
2023-04-08T15:07:19.852Z,13.60
2023-04-08T15:09:46.643Z,10.93
2023-04-08T15:12:13.777Z,10.80
2023-04-08T15:14:40.658Z,9.93
2023-04-08T15:17:07.372Z,10.30
2023-04-08T15:19:34.067Z,10.17
2023-04-08T15:22:00.856Z,10.17
2023-04-08T15:24:27.527Z,9.90
2023-04-08T15:26:54.237Z,10.00
2023-04-08T15:29:23.370Z,9.57
2023-04-08T15:31:50.110Z,9.90
2023-04-08T15:34:16.935Z,11.63
2023-04-08T15:36:45.272Z,11.13
2023-04-08T15:39:12.289Z,11.80
2023-04-08T15:41:39.036Z,11.47
2023-04-08T15:44:05.890Z,13.13
2023-04-08T15:46:33.280Z,11.07
2023-04-08T15:49:01.447Z,13.37
2023-04-08T15:51:28.745Z,16.70
2023-04-08T15:53:55.614Z,12.20
2023-04-08T15:56:22.549Z,12.70
2023-04-08T15:58:49.508Z,11.57
2023-04-08T16:01:17.151Z,14.03
2023-04-08T16:03:44.030Z,14.13
2023-04-08T16:06:11.283Z,13.80
2023-04-08T16:08:38.065Z,14.53
2023-04-08T16:11:06.662Z,14.17
2023-04-08T16:13:34.224Z,12.80
2023-04-08T16:16:04.014Z,12.50
2023-04-08T16:18:31.163Z,13.03
2023-04-08T16:20:57.993Z,13.60
2023-04-08T16:23:24.713Z,12.70
2023-04-08T16:25:52.035Z,12.23
2023-04-08T16:28:18.785Z,11.23
2023-04-08T16:30:47.910Z,11.77
2023-04-08T16:33:14.744Z,12.50
2023-04-08T16:35:41.607Z,13.23
2023-04-08T16:38:08.352Z,13.20
2023-04-08T16:40:35.255Z,14.43
2023-04-08T16:43:02.746Z,14.17
2023-04-08T16:45:30.093Z,13.70
2023-04-08T16:47:57.367Z,12.17
2023-04-08T16:50:24.558Z,13.10
2023-04-08T16:52:51.671Z,13.47
2023-04-08T16:55:19.442Z,11.53
2023-04-08T16:57:46.355Z,10.80
2023-04-08T17:00:13.523Z,10.13
2023-04-08T17:02:40.581Z,9.33
2023-04-08T17:05:07.951Z,9.23
2023-04-08T17:07:34.692Z,9.27
2023-04-08T17:10:01.406Z,11.93
2023-04-08T17:12:28.248Z,11.37
2023-04-08T17:14:54.990Z,12.23
2023-04-08T17:17:21.791Z,12.17
2023-04-08T17:19:48.631Z,11.13
2023-04-08T17:22:15.391Z,13.27
2023-04-08T17:24:42.241Z,11.87
2023-04-08T17:27:09.250Z,10.40
2023-04-08T17:29:35.957Z,10.87
2023-04-08T17:32:02.942Z,11.43
2023-04-08T17:34:31.389Z,11.23
2023-04-08T17:36:58.131Z,11.77
2023-04-08T17:39:24.771Z,11.17
2023-04-08T17:41:51.548Z,12.17
2023-04-08T17:44:18.183Z,11.93
2023-04-08T17:46:44.932Z,12.47
2023-04-08T17:49:12.886Z,10.30
2023-04-08T17:51:39.759Z,11.83
2023-04-08T17:54:06.431Z,11.10
2023-04-08T17:56:33.505Z,11.20
2023-04-08T17:59:00.445Z,11.83
2023-04-08T18:01:27.459Z,13.00
2023-04-08T18:03:54.513Z,12.00
2023-04-08T18:06:21.570Z,11.77
2023-04-08T18:08:48.449Z,11.30
2023-04-08T18:11:15.638Z,11.60
2023-04-08T18:13:42.367Z,10.57
2023-04-08T18:16:20.562Z,11.00
2023-04-08T18:18:47.897Z,13.67
2023-04-08T18:21:15.478Z,17.90
2023-04-08T18:23:42.188Z,16.07
2023-04-08T18:26:09.441Z,11.20
2023-04-08T18:28:36.468Z,11.37
2023-04-08T18:31:03.233Z,12.30
2023-04-08T18:33:29.950Z,12.70
2023-04-08T18:35:59.544Z,10.90
2023-04-08T18:38:26.611Z,11.20
2023-04-08T18:40:53.321Z,15.83
2023-04-08T18:43:19.970Z,12.83
2023-04-08T18:45:46.734Z,12.33
2023-04-08T18:48:13.446Z,11.53
2023-04-08T18:50:40.511Z,12.30
2023-04-08T18:53:08.055Z,12.00
2023-04-08T18:55:39.038Z,12.07
2023-04-08T18:58:05.730Z,14.27
2023-04-08T19:00:32.571Z,11.63
2023-04-08T19:02:59.349Z,13.30
2023-04-08T19:05:26.324Z,14.90
2023-04-08T19:07:53.197Z,16.97
2023-04-08T19:10:21.721Z,15.20
2023-04-08T19:12:48.450Z,15.27
2023-04-08T19:15:15.834Z,13.63
2023-04-08T19:17:42.594Z,14.80
2023-04-08T19:20:09.646Z,13.70
2023-04-08T19:22:36.373Z,15.37
2023-04-08T19:25:03.286Z,14.67
2023-04-08T19:27:30.093Z,14.37
2023-04-08T19:29:56.952Z,15.23
2023-04-08T19:32:23.769Z,15.17
2023-04-08T19:34:50.527Z,15.60
2023-04-08T19:37:17.374Z,14.40
2023-04-08T19:39:44.352Z,14.23
2023-04-08T19:42:12.113Z,14.70
2023-04-08T19:44:38.848Z,13.03
2023-04-08T19:47:05.557Z,13.80
2023-04-08T19:49:32.317Z,13.33
2023-04-08T19:51:59.288Z,13.60
2023-04-08T19:54:26.002Z,15.27
2023-04-08T19:56:53.500Z,16.13
2023-04-08T19:59:24.299Z,19.10
2023-04-08T20:01:52.008Z,20.13
2023-04-08T20:04:19.061Z,18.23
2023-04-08T20:06:45.980Z,16.67
2023-04-08T20:09:12.674Z,18.73
2023-04-08T20:11:39.373Z,17.80
2023-04-08T20:14:06.183Z,16.50
2023-04-08T20:16:32.964Z,19.03
2023-04-08T20:18:59.653Z,17.57
2023-04-08T20:21:26.810Z,17.10
2023-04-08T20:23:53.673Z,16.97
2023-04-08T20:26:21.575Z,16.53
2023-04-08T20:28:48.598Z,16.37
2023-04-08T20:31:16.278Z,14.80
2023-04-08T20:33:46.479Z,14.97
2023-04-08T20:36:13.837Z,14.17
2023-04-08T20:38:40.999Z,15.63
2023-04-08T20:41:07.805Z,16.27
2023-04-08T20:43:34.472Z,16.17
2023-04-08T20:46:01.169Z,15.40
2023-04-08T20:48:29.500Z,16.27
2023-04-08T20:50:57.529Z,17.20
2023-04-08T20:53:24.735Z,17.30
2023-04-08T20:55:51.896Z,18.37
2023-04-08T20:58:18.643Z,18.87
2023-04-08T21:00:47.617Z,20.57
2023-04-08T21:03:14.946Z,20.07
2023-04-08T21:05:41.935Z,20.60
2023-04-08T21:08:09.166Z,20.57
2023-04-08T21:10:35.877Z,21.47
2023-04-08T21:13:02.595Z,21.77
2023-04-08T21:15:29.726Z,22.70
2023-04-08T21:17:56.675Z,19.50
2023-04-08T21:20:23.416Z,18.00
2023-04-08T21:22:50.376Z,18.87
2023-04-08T21:25:18.088Z,20.53
2023-04-08T21:27:44.822Z,21.93
2023-04-08T21:30:11.915Z,18.17
2023-04-08T21:32:38.915Z,23.40
2023-04-08T21:35:05.965Z,24.30
2023-04-08T21:37:33.855Z,23.23
2023-04-08T21:40:00.787Z,22.83
2023-04-08T21:42:27.749Z,21.73
2023-04-08T21:44:54.485Z,18.73
2023-04-08T21:47:21.157Z,18.17
2023-04-08T21:49:49.026Z,17.70
2023-04-08T21:52:15.670Z,18.83
2023-04-08T21:54:42.375Z,18.63
2023-04-08T21:57:09.014Z,19.77
2023-04-08T21:59:35.756Z,20.23
2023-04-08T22:02:03.921Z,19.80
2023-04-08T22:04:30.928Z,20.80
2023-04-08T22:06:58.257Z,20.77
2023-04-08T22:09:24.978Z,17.93
2023-04-08T22:11:51.708Z,17.80
2023-04-08T22:14:18.497Z,16.90
2023-04-08T22:16:45.200Z,19.47
2023-04-08T22:19:12.059Z,19.73
2023-04-08T22:21:38.734Z,15.23
2023-04-08T22:24:05.707Z,17.10
2023-04-08T22:26:32.487Z,18.10
2023-04-08T22:28:59.187Z,13.97
2023-04-08T22:31:26.202Z,9.40
2023-04-08T22:33:52.893Z,8.50
2023-04-08T22:36:19.640Z,6.90
2023-04-08T22:38:46.581Z,4.27
2023-04-08T22:41:18.149Z,4.20
2023-04-08T22:43:44.951Z,4.67
2023-04-08T22:46:14.200Z,3.60
2023-04-08T22:48:41.754Z,3.33
2023-04-08T22:51:08.604Z,4.10
2023-04-08T22:53:35.308Z,4.70
2023-04-08T22:56:02.225Z,3.90
2023-04-08T22:58:29.210Z,4.23
2023-04-08T23:00:56.147Z,4.40
2023-04-08T23:03:23.209Z,4.50
2023-04-08T23:05:50.453Z,4.07
2023-04-08T23:08:17.153Z,3.50
2023-04-08T23:10:43.913Z,4.87
2023-04-08T23:13:10.670Z,3.90
2023-04-08T23:15:37.517Z,4.10
2023-04-08T23:18:04.333Z,4.17
2023-04-08T23:20:31.489Z,3.50
2023-04-08T23:22:58.282Z,4.20
2023-04-08T23:25:25.073Z,4.50
2023-04-08T23:27:51.820Z,4.13
2023-04-08T23:30:18.603Z,4.70
2023-04-08T23:32:45.575Z,3.50
2023-04-08T23:35:12.331Z,4.17
2023-04-08T23:37:39.753Z,5.00
2023-04-08T23:40:07.414Z,4.10
2023-04-08T23:42:34.159Z,3.57
2023-04-08T23:45:01.402Z,4.00
2023-04-08T23:47:29.152Z,4.80
2023-04-08T23:49:55.961Z,4.10
2023-04-08T23:52:22.741Z,4.40
2023-04-08T23:54:52.665Z,4.50
2023-04-08T23:57:22.188Z,5.53
2023-04-08T23:59:48.986Z,6.00
